Time;durP1;ratioP1;P1;durP2;ratioP2;P2;SDS_P1;SDS_P2;PMS_P1;PMS_P2;Temp;Humidity;BMP_temperature;BMP_pressure;BME280_temperature;BME280_humidity;BME280_pressure;Samples;Min_cycle;Max_cycle;Signal;HPM_P1;HPM_P2
2023/03/22 00:00:27;;;;;;;6.55;5.50;;;;;;;;;;5091188;28;20048;-91
2023/03/22 00:02:55;;;;;;;5.80;4.72;;;;;;;;;;5095159;28;20056;-90
2023/03/22 00:05:22;;;;;;;5.40;5.00;;;;;;;;;;5094341;28;20098;-91
2023/03/22 00:07:49;;;;;;;6.68;5.15;;;;;;;;;;5094530;28;20101;-90
2023/03/22 00:10:16;;;;;;;6.03;5.63;;;;;;;;;;5094282;28;20052;-91
2023/03/22 00:12:43;;;;;;;4.78;4.47;;;;;;;;;;5094337;28;20519;-90
2023/03/22 00:15:11;;;;;;;5.35;4.63;;;;;;;;;;5094303;28;20052;-91
2023/03/22 00:17:38;;;;;;;5.43;5.03;;;;;;;;;;5095187;28;20051;-91
2023/03/22 00:20:06;;;;;;;5.95;5.43;;;;;;;;;;5094315;28;20048;-90
2023/03/22 00:22:32;;;;;;;5.35;5.05;;;;;;;;;;5094566;28;20124;-90
2023/03/22 00:24:59;;;;;;;4.22;3.95;;;;;;;;;;5094363;28;20416;-90
2023/03/22 00:27:25;;;;;;;4.97;4.68;;;;;;;;;;5093943;28;20052;-90
2023/03/22 00:29:52;;;;;;;3.97;3.72;;;;;;;;;;5094188;28;20047;-89
2023/03/22 00:32:20;;;;;;;5.65;5.25;;;;;;;;;;5094300;28;20105;-90
2023/03/22 00:34:46;;;;;;;6.22;5.75;;;;;;;;;;5093902;28;20109;-90
2023/03/22 00:37:15;;;;;;;5.38;4.97;;;;;;;;;;5094368;28;20055;-90
2023/03/22 00:39:41;;;;;;;5.45;4.15;;;;;;;;;;5093776;28;20058;-90
2023/03/22 00:42:08;;;;;;;4.88;4.57;;;;;;;;;;5093859;28;20048;-90
2023/03/22 00:44:34;;;;;;;4.78;4.47;;;;;;;;;;5093843;28;20048;-90
2023/03/22 00:47:01;;;;;;;6.57;6.18;;;;;;;;;;5094451;28;20048;-89
2023/03/22 00:49:30;;;;;;;4.40;4.15;;;;;;;;;;5094289;28;20065;-91
2023/03/22 00:51:56;;;;;;;4.53;4.32;;;;;;;;;;5093744;28;20455;-90
2023/03/22 00:54:23;;;;;;;4.65;4.35;;;;;;;;;;5093884;28;20101;-90
2023/03/22 00:56:50;;;;;;;5.22;4.72;;;;;;;;;;5093814;28;20447;-90
2023/03/22 00:59:17;;;;;;;8.95;8.40;;;;;;;;;;5090183;28;20040;-90
2023/03/22 01:01:44;;;;;;;6.80;6.43;;;;;;;;;;5073505;28;20508;-90
2023/03/22 01:04:14;;;;;;;8.75;8.25;;;;;;;;;;5073921;28;20048;-90
2023/03/22 01:06:42;;;;;;;6.57;6.05;;;;;;;;;;5074058;28;20497;-90
2023/03/22 01:09:13;;;;;;;5.13;4.75;;;;;;;;;;5073957;28;20056;-89
2023/03/22 01:11:40;;;;;;;6.97;6.50;;;;;;;;;;5073844;28;20049;-89
2023/03/22 01:14:08;;;;;;;5.32;4.80;;;;;;;;;;5073527;28;20418;-89
2023/03/22 01:16:35;;;;;;;7.85;7.15;;;;;;;;;;5073288;28;20087;-90
2023/03/22 01:19:02;;;;;;;5.97;5.43;;;;;;;;;;5072887;28;20098;-90
2023/03/22 01:21:29;;;;;;;5.18;4.78;;;;;;;;;;5073515;28;20044;-89
2023/03/22 01:23:56;;;;;;;9.32;8.63;;;;;;;;;;5073520;28;20071;-89
2023/03/22 01:26:23;;;;;;;5.53;5.15;;;;;;;;;;5073892;28;20048;-90
2023/03/22 01:28:49;;;;;;;4.25;3.92;;;;;;;;;;5073693;28;20493;-90
2023/03/22 01:31:16;;;;;;;5.25;4.95;;;;;;;;;;5091744;28;20117;-90
2023/03/22 01:33:42;;;;;;;7.00;6.47;;;;;;;;;;5093115;28;20094;-90
2023/03/22 01:36:09;;;;;;;6.45;5.97;;;;;;;;;;5075869;28;20060;-90
2023/03/22 01:38:36;;;;;;;6.57;5.88;;;;;;;;;;5076001;28;20110;-89
2023/03/22 01:41:04;;;;;;;4.75;4.35;;;;;;;;;;5076834;28;20437;-90
2023/03/22 01:43:30;;;;;;;4.85;4.45;;;;;;;;;;5077398;28;20048;-90
2023/03/22 01:45:57;;;;;;;5.50;5.00;;;;;;;;;;5077631;28;20118;-90
2023/03/22 01:48:25;;;;;;;6.05;5.53;;;;;;;;;;5076824;28;20110;-89
2023/03/22 01:50:56;;;;;;;5.72;5.40;;;;;;;;;;5091341;28;20463;-90
2023/03/22 01:53:24;;;;;;;6.70;6.30;;;;;;;;;;5096669;28;20102;-89
2023/03/22 01:55:51;;;;;;;5.13;4.65;;;;;;;;;;5096699;28;20055;-89
2023/03/22 01:58:19;;;;;;;5.55;5.05;;;;;;;;;;5096817;28;20105;-90
2023/03/22 02:00:46;;;;;;;5.00;4.65;;;;;;;;;;5091603;28;20045;-90
2023/03/22 02:03:15;;;;;;;4.05;3.85;;;;;;;;;;5076602;28;20481;-89
2023/03/22 02:05:42;;;;;;;4.32;4.03;;;;;;;;;;5076897;28;20080;-90
2023/03/22 02:08:09;;;;;;;4.63;4.32;;;;;;;;;;5077191;28;20048;-90
2023/03/22 02:10:36;;;;;;;6.75;6.03;;;;;;;;;;5076729;28;20080;-89
2023/03/22 02:13:20;;;;;;;6.93;6.43;;;;;;;;;;5076652;28;20049;-89
2023/03/22 02:15:51;;;;;;;4.93;4.60;;;;;;;;;;5075860;28;20102;-89
2023/03/22 02:18:25;;;;;;;5.03;4.80;;;;;;;;;;5076350;28;20486;-90
2023/03/22 02:21:16;;;;;;;6.78;5.32;;;;;;;;;;5076223;28;20105;-90
2023/03/22 02:24:01;;;;;;;5.15;4.82;;;;;;;;;;5076439;28;20070;-89
2023/03/22 02:26:40;;;;;;;6.50;6.03;;;;;;;;;;5075871;28;20532;-90
2023/03/22 02:29:11;;;;;;;3.92;3.72;;;;;;;;;;5076222;28;20464;-89
2023/03/22 02:31:37;;;;;;;;;;;;;;;;;;5076472;28;20048;-90
2023/03/22 02:34:19;;;;;;;4.22;4.03;;;;;;;;;;5075763;28;19920;-89
2023/03/22 02:36:58;;;;;;;4.32;4.07;;;;;;;;;;5095023;28;20063;-89
2023/03/22 02:39:31;;;;;;;6.07;5.78;;;;;;;;;;5096310;28;20097;-89
2023/03/22 02:42:08;;;;;;;5.53;5.20;;;;;;;;;;5091898;28;20047;-89
2023/03/22 02:44:40;;;;;;;5.57;5.28;;;;;;;;;;5096477;28;20455;-90
2023/03/22 02:47:11;;;;;;;11.45;3.65;;;;;;;;;;5096076;28;20432;-90
2023/03/22 02:49:41;;;;;;;5.68;5.32;;;;;;;;;;5096278;28;20048;-89
2023/03/22 02:52:16;;;;;;;3.20;3.03;;;;;;;;;;5095668;28;20101;-90
2023/03/22 02:54:45;;;;;;;5.38;5.00;;;;;;;;;;5082223;28;20473;-91
2023/03/22 02:57:15;;;;;;;3.72;3.50;;;;;;;;;;5075813;28;20110;-91
2023/03/22 02:59:43;;;;;;;4.40;4.20;;;;;;;;;;5076429;28;20110;-91
2023/03/22 03:02:11;;;;;;;5.38;5.07;;;;;;;;;;5075493;28;20052;-91
2023/03/22 03:04:41;;;;;;;5.57;5.18;;;;;;;;;;5076208;28;20471;-91
2023/03/22 03:07:09;;;;;;;5.50;5.07;;;;;;;;;;5055578;28;20053;-91
2023/03/22 03:09:36;;;;;;;4.10;3.80;;;;;;;;;;5055664;28;20120;-90
2023/03/22 03:12:09;;;;;;;3.58;3.38;;;;;;;;;;5055405;28;20049;-91
2023/03/22 03:14:35;;;;;;;4.32;4.10;;;;;;;;;;5055487;28;20103;-90
2023/03/22 03:17:08;;;;;;;2.35;2.25;;;;;;;;;;5055196;28;20053;-91
2023/03/22 03:19:37;;;;;;;5.60;5.30;;;;;;;;;;5055538;28;20083;-91
2023/03/22 03:22:08;;;;;;;3.42;3.22;;;;;;;;;;5055796;28;20044;-91
2023/03/22 03:24:38;;;;;;;3.45;3.33;;;;;;;;;;5055585;28;20476;-91
2023/03/22 03:27:09;;;;;;;4.38;4.18;;;;;;;;;;5055426;28;20049;-91
2023/03/22 03:29:38;;;;;;;4.70;4.50;;;;;;;;;;5055504;28;20075;-91
2023/03/22 03:32:07;;;;;;;2.53;2.40;;;;;;;;;;5055485;28;20049;-91
2023/03/22 03:34:36;;;;;;;5.50;5.10;;;;;;;;;;5055142;28;20049;-91
2023/03/22 03:37:07;;;;;;;2.65;2.55;;;;;;;;;;5055070;28;20053;-91
2023/03/22 03:39:35;;;;;;;2.35;2.25;;;;;;;;;;5055201;28;20552;-91
2023/03/22 03:42:03;;;;;;;3.00;2.90;;;;;;;;;;5055442;28;20457;-92
2023/03/22 03:44:32;;;;;;;4.18;3.88;;;;;;;;;;5055101;28;20045;-91
2023/03/22 03:46:59;;;;;;;2.78;2.67;;;;;;;;;;5054764;28;20049;-91
2023/03/22 03:49:26;;;;;;;2.30;2.10;;;;;;;;;;5055337;28;20041;-91
2023/03/22 03:51:53;;;;;;;2.42;2.33;;;;;;;;;;5085443;28;20047;-91
2023/03/22 03:54:20;;;;;;;2.90;2.70;;;;;;;;;;5094427;28;20048;-91
2023/03/22 03:56:47;;;;;;;3.47;3.25;;;;;;;;;;5080352;28;20057;-91
2023/03/22 03:59:15;;;;;;;2.60;2.47;;;;;;;;;;5075081;28;20100;-91
2023/03/22 04:01:48;;;;;;;3.85;3.65;;;;;;;;;;5074160;28;20135;-91
2023/03/22 04:04:15;;;;;;;2.95;2.80;;;;;;;;;;5074626;28;20045;-91
2023/03/22 04:06:42;;;;;;;3.88;3.40;;;;;;;;;;5074829;28;20126;-91
2023/03/22 04:09:09;;;;;;;4.00;3.67;;;;;;;;;;5075031;28;20132;-91
2023/03/22 04:11:35;;;;;;;3.72;3.53;;;;;;;;;;5073946;28;20052;-91
2023/03/22 04:14:02;;;;;;;4.85;3.95;;;;;;;;;;5074548;28;20044;-92
2023/03/22 04:16:28;;;;;;;3.15;2.95;;;;;;;;;;5074528;28;20455;-91
2023/03/22 04:18:56;;;;;;;3.45;3.30;;;;;;;;;;5074250;28;20094;-91
2023/03/22 04:21:23;;;;;;;1.98;1.88;;;;;;;;;;5074585;28;20536;-91
2023/03/22 04:23:49;;;;;;;3.97;3.78;;;;;;;;;;5074400;28;20048;-91
2023/03/22 04:26:16;;;;;;;3.88;3.67;;;;;;;;;;5074311;28;20044;-91
2023/03/22 04:28:42;;;;;;;3.42;3.30;;;;;;;;;;5074469;28;20049;-91
2023/03/22 04:31:09;;;;;;;4.30;4.10;;;;;;;;;;5074340;28;20114;-91
2023/03/22 04:33:38;;;;;;;2.92;2.72;;;;;;;;;;5074192;28;20052;-91
2023/03/22 04:36:09;;;;;;;3.90;3.65;;;;;;;;;;5074113;28;20063;-91
2023/03/22 04:38:36;;;;;;;;;;;;;;;;;;5074710;28;20048;-92
2023/03/22 04:41:04;;;;;;;2.45;2.35;;;;;;;;;;5074235;28;19932;-92
2023/03/22 04:43:33;;;;;;;2.88;2.78;;;;;;;;;;5074446;28;20047;-92
2023/03/22 04:46:00;;;;;;;1.95;1.85;;;;;;;;;;5074452;28;20059;-92
2023/03/22 04:48:28;;;;;;;2.42;2.33;;;;;;;;;;5074335;28;20070;-92
2023/03/22 04:50:54;;;;;;;3.22;3.03;;;;;;;;;;5074617;28;20056;-92
2023/03/22 04:53:26;;;;;;;2.83;2.42;;;;;;;;;;5074214;28;20048;-92
2023/03/22 04:55:52;;;;;;;2.45;2.35;;;;;;;;;;5073811;28;20052;-91
2023/03/22 04:58:20;;;;;;;2.40;2.30;;;;;;;;;;5073948;28;20057;-92
2023/03/22 05:00:48;;;;;;;2.50;2.35;;;;;;;;;;5077670;28;20056;-92
2023/03/22 05:03:17;;;;;;;3.88;3.67;;;;;;;;;;5094850;28;20493;-92
2023/03/22 05:05:49;;;;;;;8.25;3.53;;;;;;;;;;5094559;28;20084;-92
2023/03/22 05:08:16;;;;;;;3.53;3.35;;;;;;;;;;5094680;28;20048;-93
2023/03/22 05:10:44;;;;;;;4.43;4.18;;;;;;;;;;5094753;28;20097;-92
2023/03/22 05:13:10;;;;;;;3.70;3.28;;;;;;;;;;5096855;28;20048;-92
2023/03/22 05:15:38;;;;;;;3.85;3.65;;;;;;;;;;5098628;28;20052;-92
2023/03/22 05:18:05;;;;;;;2.30;2.20;;;;;;;;;;5098573;28;20052;-92
2023/03/22 05:20:31;;;;;;;2.42;2.33;;;;;;;;;;5098736;28;20105;-93
2023/03/22 05:23:01;;;;;;;4.38;4.05;;;;;;;;;;5098744;28;20052;-92
2023/03/22 05:25:28;;;;;;;2.88;2.78;;;;;;;;;;5090966;28;20040;-91
2023/03/22 05:28:00;;;;;;;5.47;5.18;;;;;;;;;;5076005;28;20059;-91
2023/03/22 05:30:27;;;;;;;3.13;3.00;;;;;;;;;;5058560;28;20490;-91
2023/03/22 05:32:56;;;;;;;4.32;4.13;;;;;;;;;;5057923;28;20045;-92
2023/03/22 05:35:23;;;;;;;2.88;2.75;;;;;;;;;;5057386;28;20048;-91
2023/03/22 05:37:50;;;;;;;4.68;2.42;;;;;;;;;;5058035;28;20056;-92
2023/03/22 05:40:16;;;;;;;3.67;3.08;;;;;;;;;;5060120;28;20092;-92
2023/03/22 05:42:43;;;;;;;3.42;3.22;;;;;;;;;;5085573;28;20468;-91
2023/03/22 05:45:11;;;;;;;3.33;3.20;;;;;;;;;;5086662;28;20045;-91
2023/03/22 05:47:38;;;;;;;3.10;2.97;;;;;;;;;;5088751;28;20440;-91
2023/03/22 05:50:05;;;;;;;3.70;3.40;;;;;;;;;;5086171;28;20131;-91
2023/03/22 05:52:32;;;;;;;3.83;3.63;;;;;;;;;;5087291;28;20060;-91
2023/03/22 05:54:58;;;;;;;4.57;4.28;;;;;;;;;;5086776;28;20045;-90
2023/03/22 05:57:25;;;;;;;3.90;3.70;;;;;;;;;;5086480;28;20489;-90
2023/03/22 05:59:52;;;;;;;3.05;2.85;;;;;;;;;;5085899;28;20052;-91
2023/03/22 06:02:20;;;;;;;4.78;4.40;;;;;;;;;;5093789;28;20058;-91
2023/03/22 06:04:48;;;;;;;3.90;3.75;;;;;;;;;;5097604;28;20040;-91
2023/03/22 06:07:15;;;;;;;3.95;3.83;;;;;;;;;;5098056;28;20051;-92
2023/03/22 06:09:41;;;;;;;2.42;2.33;;;;;;;;;;5098187;28;20044;-91
2023/03/22 06:12:08;;;;;;;5.15;4.85;;;;;;;;;;5097572;28;20044;-91
2023/03/22 06:14:34;;;;;;;4.03;3.83;;;;;;;;;;5097386;28;20048;-92
2023/03/22 06:17:01;;;;;;;2.35;2.25;;;;;;;;;;5097375;28;20092;-92
2023/03/22 06:19:29;;;;;;;3.50;3.38;;;;;;;;;;5097298;28;20102;-92
2023/03/22 06:21:56;;;;;;;4.53;4.22;;;;;;;;;;5097397;28;20105;-91
2023/03/22 06:24:22;;;;;;;3.88;3.70;;;;;;;;;;5096809;28;20093;-91
2023/03/22 06:26:49;;;;;;;2.88;2.78;;;;;;;;;;5090169;28;20048;-90
2023/03/22 06:29:15;;;;;;;2.92;2.78;;;;;;;;;;5077332;28;20106;-90
2023/03/22 06:31:42;;;;;;;4.68;4.47;;;;;;;;;;5082461;28;20040;-91
2023/03/22 06:34:08;;;;;;;4.68;4.43;;;;;;;;;;5097486;28;20040;-88
2023/03/22 06:36:36;;;;;;;5.07;4.85;;;;;;;;;;5092385;28;20102;-89
2023/03/22 06:39:04;;;;;;;5.72;5.45;;;;;;;;;;5076002;28;20098;-89
2023/03/22 06:41:30;;;;;;;3.63;3.45;;;;;;;;;;5076135;28;20083;-90
2023/03/22 06:43:57;;;;;;;4.88;4.60;;;;;;;;;;5075951;28;20048;-89
2023/03/22 06:46:23;;;;;;;4.65;4.43;;;;;;;;;;5077396;28;20056;-89
2023/03/22 06:48:50;;;;;;;3.28;3.08;;;;;;;;;;5097046;28;20051;-89
2023/03/22 06:51:16;;;;;;;4.63;4.38;;;;;;;;;;5095528;28;20051;-89
2023/03/22 06:53:44;;;;;;;4.70;4.47;;;;;;;;;;5075750;28;20099;-90
2023/03/22 06:56:11;;;;;;;3.05;2.92;;;;;;;;;;5075578;28;20105;-89
2023/03/22 06:58:37;;;;;;;3.05;2.95;;;;;;;;;;5094900;28;20048;-89
2023/03/22 07:01:04;;;;;;;3.58;3.42;;;;;;;;;;5095795;28;20044;-89
2023/03/22 07:03:30;;;;;;;2.38;2.17;;;;;;;;;;5095433;28;20044;-90
2023/03/22 07:06:00;;;;;;;4.95;2.95;;;;;;;;;;5095813;28;20050;-90
2023/03/22 07:08:27;;;;;;;3.20;2.25;;;;;;;;;;5078086;28;20090;-90
2023/03/22 07:10:54;;;;;;;2.45;2.25;;;;;;;;;;5076595;28;20053;-89
2023/03/22 07:13:21;;;;;;;3.95;3.75;;;;;;;;;;5092056;28;20109;-89
2023/03/22 07:15:47;;;;;;;4.43;4.20;;;;;;;;;;5095111;28;20048;-89
2023/03/22 07:18:14;;;;;;;2.35;2.25;;;;;;;;;;5094804;28;20507;-90
2023/03/22 07:20:41;;;;;;;3.22;3.03;;;;;;;;;;5095111;28;20048;-89
2023/03/22 07:23:09;;;;;;;3.72;3.50;;;;;;;;;;5094811;28;20646;-89
2023/03/22 07:25:35;;;;;;;3.25;3.05;;;;;;;;;;5094388;28;20044;-89
2023/03/22 07:28:05;;;;;;;2.10;2.00;;;;;;;;;;5082314;28;20052;-90
2023/03/22 07:30:34;;;;;;;3.47;3.35;;;;;;;;;;5074582;28;20051;-89
2023/03/22 07:33:01;;;;;;;5.10;4.80;;;;;;;;;;5075339;28;20048;-89
2023/03/22 07:35:27;;;;;;;3.17;3.05;;;;;;;;;;5073648;28;20489;-89
2023/03/22 07:37:54;;;;;;;3.40;3.20;;;;;;;;;;5074614;28;20118;-89
2023/03/22 07:40:20;;;;;;;3.05;2.83;;;;;;;;;;5074554;28;20476;-89
2023/03/22 07:42:47;;;;;;;3.08;2.95;;;;;;;;;;5074000;28;20052;-89
2023/03/22 07:45:15;;;;;;;2.45;2.33;;;;;;;;;;5074031;28;20106;-89
2023/03/22 07:47:42;;;;;;;2.85;2.75;;;;;;;;;;5083712;28;20130;-90
2023/03/22 07:50:10;;;;;;;3.33;2.78;;;;;;;;;;5095025;28;20044;-89
2023/03/22 07:52:37;;;;;;;2.50;2.40;;;;;;;;;;5094396;28;20044;-90
2023/03/22 07:55:03;;;;;;;5.03;4.82;;;;;;;;;;5094399;28;20447;-89
2023/03/22 07:57:30;;;;;;;3.33;3.13;;;;;;;;;;5093974;28;20112;-90
2023/03/22 07:59:57;;;;;;;4.25;4.05;;;;;;;;;;5094745;28;20643;-88
2023/03/22 08:02:25;;;;;;;2.13;2.03;;;;;;;;;;5093872;28;20056;-88
2023/03/22 08:04:53;;;;;;;2.33;2.13;;;;;;;;;;5072923;28;20413;-90
2023/03/22 08:07:20;;;;;;;3.70;3.03;;;;;;;;;;5074216;28;20111;-90
2023/03/22 08:09:48;;;;;;;3.20;3.08;;;;;;;;;;5073958;28;20044;-90
2023/03/22 08:12:14;;;;;;;3.35;3.22;;;;;;;;;;5073846;28;20106;-89
2023/03/22 08:14:41;;;;;;;3.42;3.28;;;;;;;;;;5074212;28;20048;-90
2023/03/22 08:17:07;;;;;;;3.50;3.28;;;;;;;;;;5076974;28;20103;-89
2023/03/22 08:19:35;;;;;;;3.40;3.25;;;;;;;;;;5093640;28;20062;-90
2023/03/22 08:22:02;;;;;;;3.60;3.47;;;;;;;;;;5094393;28;20676;-90
2023/03/22 08:24:29;;;;;;;3.92;3.63;;;;;;;;;;5093842;28;20055;-89
2023/03/22 08:26:56;;;;;;;3.15;3.03;;;;;;;;;;5093484;28;20056;-90
2023/03/22 08:29:23;;;;;;;4.00;3.70;;;;;;;;;;5094029;28;20055;-89
2023/03/22 08:31:49;;;;;;;3.80;3.60;;;;;;;;;;5093707;28;20091;-90
2023/03/22 08:34:17;;;;;;;3.55;3.42;;;;;;;;;;5073433;28;20051;-89
2023/03/22 08:36:45;;;;;;;4.63;4.43;;;;;;;;;;5073175;28;20102;-89
2023/03/22 08:39:11;;;;;;;3.97;3.70;;;;;;;;;;5092120;28;20493;-89
2023/03/22 08:41:38;;;;;;;2.72;2.35;;;;;;;;;;5092918;28;20467;-90
2023/03/22 08:44:05;;;;;;;4.05;3.85;;;;;;;;;;5092780;28;20060;-89
2023/03/22 08:46:31;;;;;;;2.72;2.63;;;;;;;;;;5092984;28;20489;-89
2023/03/22 08:48:59;;;;;;;2.78;2.53;;;;;;;;;;5076591;28;20049;-90
2023/03/22 08:51:26;;;;;;;3.67;3.40;;;;;;;;;;5073474;28;20052;-90
2023/03/22 08:53:57;;;;;;;3.35;3.20;;;;;;;;;;5069625;28;20106;-89
2023/03/22 08:56:26;;;;;;;3.17;3.03;;;;;;;;;;5072580;28;20440;-90
2023/03/22 08:58:52;;;;;;;4.50;3.85;;;;;;;;;;5088418;28;20063;-91
2023/03/22 09:01:20;;;;;;;3.80;3.58;;;;;;;;;;5092536;28;20040;-89
2023/03/22 09:03:46;;;;;;;3.75;3.40;;;;;;;;;;5077910;28;20044;-90
2023/03/22 09:06:13;;;;;;;3.50;3.30;;;;;;;;;;5073081;28;20053;-89
2023/03/22 09:08:40;;;;;;;6.03;5.63;;;;;;;;;;5072732;28;20056;-89
2023/03/22 09:11:09;;;;;;;4.95;4.55;;;;;;;;;;5072530;28;20045;-89
2023/03/22 09:13:36;;;;;;;4.78;4.57;;;;;;;;;;5084504;28;20044;-90
2023/03/22 09:16:02;;;;;;;4.35;4.15;;;;;;;;;;5093028;28;20044;-90
2023/03/22 09:18:29;;;;;;;5.90;5.60;;;;;;;;;;5091786;28;20498;-89
2023/03/22 09:20:56;;;;;;;5.30;4.90;;;;;;;;;;5092326;28;20040;-90
2023/03/22 09:23:22;;;;;;;5.63;5.32;;;;;;;;;;5082745;28;20052;-90
2023/03/22 09:25:50;;;;;;;7.10;6.70;;;;;;;;;;5072354;28;20045;-90
2023/03/22 09:28:17;;;;;;;6.28;5.95;;;;;;;;;;5080752;28;20052;-90
2023/03/22 09:30:44;;;;;;;4.10;3.90;;;;;;;;;;5092830;28;20051;-90
2023/03/22 09:33:11;;;;;;;3.22;3.10;;;;;;;;;;5093203;28;20474;-89
2023/03/22 09:35:40;;;;;;;4.25;4.03;;;;;;;;;;5092214;28;20060;-89
2023/03/22 09:38:06;;;;;;;7.65;7.35;;;;;;;;;;5092608;28;20048;-91
2023/03/22 09:40:33;;;;;;;4.57;4.35;;;;;;;;;;5092364;28;20055;-91
2023/03/22 09:43:01;;;;;;;5.30;5.00;;;;;;;;;;5087651;28;20063;-89
2023/03/22 09:45:36;;;;;;;3.03;2.83;;;;;;;;;;5071863;28;20048;-91
2023/03/22 09:48:03;;;;;;;3.67;3.47;;;;;;;;;;5077333;28;20575;-91
2023/03/22 09:50:31;;;;;;;5.75;5.45;;;;;;;;;;5092894;28;20051;-92
2023/03/22 09:52:58;;;;;;;2.97;2.85;;;;;;;;;;5093039;28;20489;-91
2023/03/22 09:55:30;;;;;;;5.75;5.53;;;;;;;;;;5093071;28;20109;-91
2023/03/22 09:58:01;;;;;;;4.13;3.92;;;;;;;;;;5077918;28;20123;-89
2023/03/22 10:00:33;;;;;;;4.38;4.15;;;;;;;;;;5076306;28;20052;-91
2023/03/22 10:03:03;;;;;;;3.55;3.33;;;;;;;;;;5079774;28;20044;-90
2023/03/22 10:05:32;;;;;;;5.70;5.47;;;;;;;;;;5096723;28;20560;-90
2023/03/22 10:08:13;;;;;;;5.07;4.88;;;;;;;;;;5092591;28;20127;-90
2023/03/22 10:10:41;;;;;;;4.85;4.60;;;;;;;;;;5076266;28;20497;-91
2023/03/22 10:13:14;;;;;;;3.80;3.60;;;;;;;;;;5081177;28;20062;-90
2023/03/22 10:15:43;;;;;;;3.38;3.17;;;;;;;;;;5091807;28;20055;-90
2023/03/22 10:18:13;;;;;;;4.47;4.28;;;;;;;;;;5075307;28;20571;-90
2023/03/22 10:20:42;;;;;;;3.83;3.63;;;;;;;;;;5075430;28;20041;-89
2023/03/22 10:23:11;;;;;;;3.50;3.38;;;;;;;;;;5075670;28;20460;-90
2023/03/22 10:25:39;;;;;;;3.72;3.50;;;;;;;;;;5075657;28;20056;-90
2023/03/22 10:28:14;;;;;;;2.95;2.83;;;;;;;;;;5076580;28;20049;-91
2023/03/22 10:30:43;;;;;;;5.38;5.13;;;;;;;;;;5075973;28;20052;-89
2023/03/22 10:33:13;;;;;;;3.50;3.35;;;;;;;;;;5075686;28;20083;-89
2023/03/22 10:35:41;;;;;;;5.68;5.43;;;;;;;;;;5075710;28;20044;-89
2023/03/22 10:38:09;;;;;;;3.50;3.30;;;;;;;;;;5079026;28;20117;-90
2023/03/22 10:40:36;;;;;;;4.00;3.83;;;;;;;;;;5095838;28;20097;-90
2023/03/22 10:43:04;;;;;;;3.38;3.25;;;;;;;;;;5093726;28;20112;-90
2023/03/22 10:45:33;;;;;;;5.15;4.88;;;;;;;;;;5077229;28;20486;-90
2023/03/22 10:48:03;;;;;;;6.30;6.00;;;;;;;;;;5075139;28;20056;-89
2023/03/22 10:50:31;;;;;;;5.32;5.03;;;;;;;;;;5075375;28;20063;-90
2023/03/22 10:53:01;;;;;;;4.32;4.07;;;;;;;;;;5075506;28;20052;-90
2023/03/22 10:55:28;;;;;;;5.18;4.95;;;;;;;;;;5075312;28;20047;-90
2023/03/22 10:57:59;;;;;;;6.70;6.40;;;;;;;;;;5074914;28;20053;-89
2023/03/22 11:00:27;;;;;;;6.57;6.28;;;;;;;;;;5074953;28;20559;-90
2023/03/22 11:02:58;;;;;;;5.85;5.57;;;;;;;;;;5074489;28;20473;-89
2023/03/22 11:05:24;;;;;;;;;;;;;;;;;;5055812;28;20123;-90
2023/03/22 11:07:52;;;;;;;5.80;5.40;;;;;;;;;;5055080;28;19925;-90
2023/03/22 11:10:21;;;;;;;4.47;4.18;;;;;;;;;;5093258;28;20048;-89
2023/03/22 11:12:49;;;;;;;7.20;5.60;;;;;;;;;;5095665;28;20097;-90
2023/03/22 11:15:29;;;;;;;6.40;6.18;;;;;;;;;;5094680;28;20105;-89
2023/03/22 11:18:00;;;;;;;6.13;5.90;;;;;;;;;;5094678;28;20135;-90
2023/03/22 11:20:27;;;;;;;5.10;4.85;;;;;;;;;;5094414;28;20131;-90
2023/03/22 11:22:56;;;;;;;4.53;4.32;;;;;;;;;;5094498;28;20558;-89
2023/03/22 11:25:26;;;;;;;4.28;4.07;;;;;;;;;;5095244;28;20121;-91
2023/03/22 11:27:53;;;;;;;5.68;5.40;;;;;;;;;;5077938;28;20045;-89
2023/03/22 11:30:21;;;;;;;5.55;5.25;;;;;;;;;;5075075;28;20048;-90
2023/03/22 11:32:48;;;;;;;4.45;4.25;;;;;;;;;;5075184;28;20048;-90
2023/03/22 11:35:17;;;;;;;4.00;3.85;;;;;;;;;;5074444;28;20098;-89
2023/03/22 11:37:45;;;;;;;3.35;3.15;;;;;;;;;;5073801;28;20052;-90
2023/03/22 11:40:15;;;;;;;4.00;3.80;;;;;;;;;;5073914;28;20055;-89
2023/03/22 11:42:42;;;;;;;5.47;5.25;;;;;;;;;;5073744;28;20052;-90
2023/03/22 11:45:14;;;;;;;5.75;5.53;;;;;;;;;;5074311;28;20051;-89
2023/03/22 11:47:40;;;;;;;5.45;5.25;;;;;;;;;;5073785;28;20390;-90
2023/03/22 11:50:08;;;;;;;8.18;7.80;;;;;;;;;;5074497;28;20479;-89
2023/03/22 11:52:35;;;;;;;5.70;5.40;;;;;;;;;;5072831;28;20139;-89
2023/03/22 11:55:02;;;;;;;5.78;5.55;;;;;;;;;;5073691;28;20053;-88
2023/03/22 11:57:31;;;;;;;5.60;5.28;;;;;;;;;;5073575;28;20464;-89
2023/03/22 11:59:59;;;;;;;6.78;6.47;;;;;;;;;;5073484;28;20048;-89
2023/03/22 12:02:27;;;;;;;6.97;6.68;;;;;;;;;;5073319;28;20506;-89
2023/03/22 12:04:59;;;;;;;5.45;5.18;;;;;;;;;;5087262;28;20048;-89
2023/03/22 12:07:27;;;;;;;5.43;5.20;;;;;;;;;;5093727;28;20048;-89
2023/03/22 12:09:57;;;;;;;7.65;7.35;;;;;;;;;;5093964;28;20145;-90
2023/03/22 12:12:25;;;;;;;6.28;5.97;;;;;;;;;;5093657;28;20060;-90
2023/03/22 12:14:55;;;;;;;6.47;6.18;;;;;;;;;;5093319;28;20074;-89
2023/03/22 12:17:26;;;;;;;5.35;5.10;;;;;;;;;;5093560;28;20467;-89
2023/03/22 12:19:58;;;;;;;6.40;6.10;;;;;;;;;;5081443;28;20048;-90
2023/03/22 12:22:27;;;;;;;5.50;5.28;;;;;;;;;;5072972;28;20044;-90
2023/03/22 12:24:54;;;;;;;3.92;3.72;;;;;;;;;;5073536;28;20101;-90
2023/03/22 12:27:23;;;;;;;5.55;5.30;;;;;;;;;;5073105;28;20493;-89
2023/03/22 12:29:52;;;;;;;4.70;4.47;;;;;;;;;;5073408;28;20060;-89
2023/03/22 12:32:23;;;;;;;7.10;6.72;;;;;;;;;;5072894;28;20098;-88
2023/03/22 12:34:51;;;;;;;6.00;5.70;;;;;;;;;;5072694;28;20088;-90
2023/03/22 12:37:20;;;;;;;4.95;4.72;;;;;;;;;;5069196;28;20057;-90
2023/03/22 12:39:48;;;;;;;9.98;9.50;;;;;;;;;;5083775;28;20044;-90
2023/03/22 12:42:18;;;;;;;8.02;7.70;;;;;;;;;;5093872;28;20051;-90
2023/03/22 12:44:45;;;;;;;9.15;8.75;;;;;;;;;;5093230;28;20048;-90
2023/03/22 12:47:14;;;;;;;8.43;7.82;;;;;;;;;;5092652;28;20044;-89
2023/03/22 12:49:46;;;;;;;5.93;5.65;;;;;;;;;;5093288;28;20059;-91
2023/03/22 12:52:14;;;;;;;5.60;5.40;;;;;;;;;;5092668;28;20047;-89
2023/03/22 12:54:41;;;;;;;7.28;6.97;;;;;;;;;;5093087;28;20051;-89
2023/03/22 12:57:08;;;;;;;4.70;4.50;;;;;;;;;;5092972;28;20490;-90
2023/03/22 12:59:35;;;;;;;7.68;6.97;;;;;;;;;;5093209;28;20056;-91
2023/03/22 13:02:06;;;;;;;6.50;6.20;;;;;;;;;;5093646;28;20048;-89
2023/03/22 13:04:46;;;;;;;6.95;6.55;;;;;;;;;;5093043;28;20125;-90
2023/03/22 13:07:16;;;;;;;7.00;6.70;;;;;;;;;;5092913;28;20102;-88
2023/03/22 13:09:43;;;;;;;6.75;6.45;;;;;;;;;;5089158;28;20053;-89
2023/03/22 13:12:34;;;;;;;6.13;5.82;;;;;;;;;;5069029;28;20045;-87
2023/03/22 13:15:02;;;;;;;6.78;6.47;;;;;;;;;;5055220;28;20098;-88
2023/03/22 13:17:42;;;;;;;4.75;4.50;;;;;;;;;;5071092;28;20379;-90
2023/03/22 13:20:26;;;;;;;5.43;5.13;;;;;;;;;;5073883;28;20052;-89
2023/03/22 13:23:17;;;;;;;3.90;3.70;;;;;;;;;;5069162;28;20040;-89
2023/03/22 13:28:40;;;;;;;3.90;3.70;;;;;;;;;;5146378;27;20440;-89
2023/03/22 13:31:07;;;;;;;4.65;4.45;;;;;;;;;;5130960;28;20548;-88
2023/03/22 13:33:35;;;;;;;5.40;5.13;;;;;;;;;;5131344;28;20104;-88
2023/03/22 13:36:05;;;;;;;3.92;3.72;;;;;;;;;;5133550;28;20047;-89
2023/03/22 13:38:33;;;;;;;5.88;5.68;;;;;;;;;;5141343;28;20100;-88
2023/03/22 13:41:01;;;;;;;6.15;5.85;;;;;;;;;;5142002;28;20379;-89
2023/03/22 13:43:29;;;;;;;8.70;5.85;;;;;;;;;;5140137;28;20136;-88
2023/03/22 13:46:26;;;;;;;4.65;4.38;;;;;;;;;;5135631;28;20039;-87
2023/03/22 13:48:56;;;;;;;5.72;5.50;;;;;;;;;;5128506;28;20043;-88
2023/03/22 13:51:29;;;;;;;4.22;4.03;;;;;;;;;;5132298;28;20040;-88
2023/03/22 13:53:59;;;;;;;5.22;5.03;;;;;;;;;;5131055;28;20050;-89
2023/03/22 13:56:32;;;;;;;5.05;4.85;;;;;;;;;;5130976;28;20057;-88
2023/03/22 13:58:59;;;;;;;6.45;6.15;;;;;;;;;;5131207;28;20055;-89
2023/03/22 14:01:29;;;;;;;4.80;4.60;;;;;;;;;;5130843;28;20048;-88
2023/03/22 14:04:00;;;;;;;5.45;5.25;;;;;;;;;;5130292;28;20097;-87
2023/03/22 14:06:28;;;;;;;3.92;3.72;;;;;;;;;;5130399;28;20051;-88
2023/03/22 14:08:56;;;;;;;5.53;5.32;;;;;;;;;;5127291;28;20058;-89
2023/03/22 14:11:25;;;;;;;4.70;4.50;;;;;;;;;;5127230;27;20055;-89
2023/03/22 14:13:55;;;;;;;4.57;4.38;;;;;;;;;;5130129;28;20043;-89
2023/03/22 14:16:29;;;;;;;5.18;4.88;;;;;;;;;;5129101;28;20502;-89
2023/03/22 14:18:56;;;;;;;4.70;4.50;;;;;;;;;;5126428;28;20493;-89
2023/03/22 14:21:28;;;;;;;5.70;5.50;;;;;;;;;;5128377;28;20123;-88
2023/03/22 14:23:56;;;;;;;7.13;6.75;;;;;;;;;;5118994;28;20547;-88
2023/03/22 14:26:25;;;;;;;6.72;6.43;;;;;;;;;;5129016;28;20051;-90
2023/03/22 14:28:53;;;;;;;6.57;6.10;;;;;;;;;;5130086;28;20104;-89
2023/03/22 14:31:22;;;;;;;7.68;7.38;;;;;;;;;;5129653;28;20047;-88
2023/03/22 14:33:48;;;;;;;4.53;4.32;;;;;;;;;;5130130;28;20112;-88
2023/03/22 14:36:16;;;;;;;4.22;4.03;;;;;;;;;;5129883;28;20043;-89
2023/03/22 14:38:46;;;;;;;5.15;4.95;;;;;;;;;;5123377;28;20126;-88
2023/03/22 14:41:14;;;;;;;4.80;4.60;;;;;;;;;;5115887;28;20044;-88
2023/03/22 14:43:41;;;;;;;6.32;6.03;;;;;;;;;;5114990;28;20056;-88
2023/03/22 14:46:13;;;;;;;5.20;5.00;;;;;;;;;;5115352;28;20052;-89
2023/03/22 14:48:39;;;;;;;3.95;3.75;;;;;;;;;;5115724;28;20047;-89
2023/03/22 14:51:08;;;;;;;5.65;5.45;;;;;;;;;;5115598;28;20495;-89
2023/03/22 14:53:36;;;;;;;3.88;3.67;;;;;;;;;;5116106;28;20052;-89